sensor_id;sensor_type;location;lat;lon;timestamp;temperature;humidity
7192;DHT22;3637;51.494;11.958;2023-12-20T00:01:50;5.80;99.90
7192;DHT22;3637;51.494;11.958;2023-12-20T00:04:58;5.80;99.90
7192;DHT22;3637;51.494;11.958;2023-12-20T00:08:00;5.80;99.90
7192;DHT22;3637;51.494;11.958;2023-12-20T00:11:05;6.80;99.90
7192;DHT22;3637;51.494;11.958;2023-12-20T00:14:08;5.90;99.90
7192;DHT22;3637;51.494;11.958;2023-12-20T00:17:12;5.80;99.90
7192;DHT22;3637;51.494;11.958;2023-12-20T00:20:16;6.10;99.90
7192;DHT22;3637;51.494;11.958;2023-12-20T00:23:17;5.80;99.90
7192;DHT22;3637;51.494;11.958;2023-12-20T00:26:19;5.80;99.90
7192;DHT22;3637;51.494;11.958;2023-12-20T00:29:23;5.90;99.90
7192;DHT22;3637;51.494;11.958;2023-12-20T00:32:25;7.00;99.90
7192;DHT22;3637;51.494;11.958;2023-12-20T00:35:28;5.70;99.90
7192;DHT22;3637;51.494;11.958;2023-12-20T00:38:31;5.80;99.90
7192;DHT22;3637;51.494;11.958;2023-12-20T00:41:33;5.80;99.90
7192;DHT22;3637;51.494;11.958;2023-12-20T00:44:35;5.90;99.90
7192;DHT22;3637;51.494;11.958;2023-12-20T00:47:37;6.90;99.90
7192;DHT22;3637;51.494;11.958;2023-12-20T00:50:41;5.90;99.90
7192;DHT22;3637;51.494;11.958;2023-12-20T00:53:44;5.90;99.90
7192;DHT22;3637;51.494;11.958;2023-12-20T00:57:06;5.80;99.90
7192;DHT22;3637;51.494;11.958;2023-12-20T01:00:10;5.80;99.90
7192;DHT22;3637;51.494;11.958;2023-12-20T01:03:14;5.80;99.90
7192;DHT22;3637;51.494;11.958;2023-12-20T01:06:19;6.80;99.90
7192;DHT22;3637;51.494;11.958;2023-12-20T01:09:23;6.40;99.90
7192;DHT22;3637;51.494;11.958;2023-12-20T01:12:47;6.60;99.90
7192;DHT22;3637;51.494;11.958;2023-12-20T01:15:49;5.80;99.90
7192;DHT22;3637;51.494;11.958;2023-12-20T01:18:51;6.70;99.90
7192;DHT22;3637;51.494;11.958;2023-12-20T01:21:56;5.80;99.90
7192;DHT22;3637;51.494;11.958;2023-12-20T01:25:01;6.30;99.90
7192;DHT22;3637;51.494;11.958;2023-12-20T01:28:06;5.70;99.90
7192;DHT22;3637;51.494;11.958;2023-12-20T01:31:12;6.10;99.90
7192;DHT22;3637;51.494;11.958;2023-12-20T01:34:19;5.70;99.90
7192;DHT22;3637;51.494;11.958;2023-12-20T01:37:23;5.70;99.90
7192;DHT22;3637;51.494;11.958;2023-12-20T01:40:27;5.80;99.90
7192;DHT22;3637;51.494;11.958;2023-12-20T01:43:31;5.70;99.90
7192;DHT22;3637;51.494;11.958;2023-12-20T01:46:34;5.70;99.90
7192;DHT22;3637;51.494;11.958;2023-12-20T01:49:40;5.70;99.90
7192;DHT22;3637;51.494;11.958;2023-12-20T01:52:49;5.70;99.90
7192;DHT22;3637;51.494;11.958;2023-12-20T01:55:55;5.70;99.90
7192;DHT22;3637;51.494;11.958;2023-12-20T01:58:58;6.40;99.90
7192;DHT22;3637;51.494;11.958;2023-12-20T02:02:03;5.80;99.90
7192;DHT22;3637;51.494;11.958;2023-12-20T02:05:08;6.40;99.90
7192;DHT22;3637;51.494;11.958;2023-12-20T02:08:31;5.90;99.90
7192;DHT22;3637;51.494;11.958;2023-12-20T02:11:36;5.90;99.90
7192;DHT22;3637;51.494;11.958;2023-12-20T02:14:42;6.30;99.90
7192;DHT22;3637;51.494;11.958;2023-12-20T02:18:00;6.50;99.90
7192;DHT22;3637;51.494;11.958;2023-12-20T02:21:06;6.10;99.90
7192;DHT22;3637;51.494;11.958;2023-12-20T02:24:12;5.90;99.90
7192;DHT22;3637;51.494;11.958;2023-12-20T02:27:15;5.90;99.90
7192;DHT22;3637;51.494;11.958;2023-12-20T02:30:20;6.50;99.90
7192;DHT22;3637;51.494;11.958;2023-12-20T02:33:27;5.90;99.90
7192;DHT22;3637;51.494;11.958;2023-12-20T02:36:33;6.20;99.90
7192;DHT22;3637;51.494;11.958;2023-12-20T02:39:39;7.00;99.90
7192;DHT22;3637;51.494;11.958;2023-12-20T02:42:44;5.80;99.90
7192;DHT22;3637;51.494;11.958;2023-12-20T02:45:48;6.00;99.90
7192;DHT22;3637;51.494;11.958;2023-12-20T02:48:52;5.70;99.90
7192;DHT22;3637;51.494;11.958;2023-12-20T02:51:55;5.80;99.90
7192;DHT22;3637;51.494;11.958;2023-12-20T02:55:04;6.30;99.90
7192;DHT22;3637;51.494;11.958;2023-12-20T02:58:07;5.90;99.90
7192;DHT22;3637;51.494;11.958;2023-12-20T03:01:11;6.30;99.90
7192;DHT22;3637;51.494;11.958;2023-12-20T03:07:53;5.90;99.90
7192;DHT22;3637;51.494;11.958;2023-12-20T03:10:59;5.90;99.90
7192;DHT22;3637;51.494;11.958;2023-12-20T03:14:01;5.80;99.90
7192;DHT22;3637;51.494;11.958;2023-12-20T03:17:05;6.20;99.90
7192;DHT22;3637;51.494;11.958;2023-12-20T03:20:09;5.70;99.90
7192;DHT22;3637;51.494;11.958;2023-12-20T03:23:11;5.80;99.90
7192;DHT22;3637;51.494;11.958;2023-12-20T03:26:20;5.80;99.90
7192;DHT22;3637;51.494;11.958;2023-12-20T03:29:43;6.40;99.90
7192;DHT22;3637;51.494;11.958;2023-12-20T03:32:46;5.80;99.90
7192;DHT22;3637;51.494;11.958;2023-12-20T03:35:48;5.90;99.90
7192;DHT22;3637;51.494;11.958;2023-12-20T03:38:54;6.60;99.90
7192;DHT22;3637;51.494;11.958;2023-12-20T03:41:58;5.70;99.90
7192;DHT22;3637;51.494;11.958;2023-12-20T03:45:00;6.40;99.90
7192;DHT22;3637;51.494;11.958;2023-12-20T03:48:04;5.60;99.90
7192;DHT22;3637;51.494;11.958;2023-12-20T03:51:09;5.60;99.90
7192;DHT22;3637;51.494;11.958;2023-12-20T03:54:10;5.60;99.90
7192;DHT22;3637;51.494;11.958;2023-12-20T03:57:19;5.60;99.90
7192;DHT22;3637;51.494;11.958;2023-12-20T04:00:20;5.70;99.90
7192;DHT22;3637;51.494;11.958;2023-12-20T04:03:23;6.50;99.90
7192;DHT22;3637;51.494;11.958;2023-12-20T04:06:25;5.60;99.90
7192;DHT22;3637;51.494;11.958;2023-12-20T04:09:27;6.00;99.90
7192;DHT22;3637;51.494;11.958;2023-12-20T04:12:40;5.10;99.90
7192;DHT22;3637;51.494;11.958;2023-12-20T04:15:42;5.70;99.90
7192;DHT22;3637;51.494;11.958;2023-12-20T04:18:45;6.10;99.90
7192;DHT22;3637;51.494;11.958;2023-12-20T04:21:47;5.40;99.90
7192;DHT22;3637;51.494;11.958;2023-12-20T04:24:50;6.60;99.90
7192;DHT22;3637;51.494;11.958;2023-12-20T04:27:53;5.70;99.90
7192;DHT22;3637;51.494;11.958;2023-12-20T04:30:56;6.00;99.90
7192;DHT22;3637;51.494;11.958;2023-12-20T04:33:58;5.70;99.90
7192;DHT22;3637;51.494;11.958;2023-12-20T04:37:01;6.00;99.90
7192;DHT22;3637;51.494;11.958;2023-12-20T04:40:06;5.70;99.90
7192;DHT22;3637;51.494;11.958;2023-12-20T04:43:23;5.70;99.90
7192;DHT22;3637;51.494;11.958;2023-12-20T04:46:26;5.80;99.90
7192;DHT22;3637;51.494;11.958;2023-12-20T04:49:31;5.80;99.90
7192;DHT22;3637;51.494;11.958;2023-12-20T04:52:35;5.70;99.90
7192;DHT22;3637;51.494;11.958;2023-12-20T04:55:37;5.70;99.90
7192;DHT22;3637;51.494;11.958;2023-12-20T04:58:44;5.30;99.90
7192;DHT22;3637;51.494;11.958;2023-12-20T05:01:49;5.60;99.90
7192;DHT22;3637;51.494;11.958;2023-12-20T05:04:52;6.00;99.90
7192;DHT22;3637;51.494;11.958;2023-12-20T05:07:54;6.40;99.90
7192;DHT22;3637;51.494;11.958;2023-12-20T05:10:58;5.60;99.90
7192;DHT22;3637;51.494;11.958;2023-12-20T05:14:01;6.30;99.90
7192;DHT22;3637;51.494;11.958;2023-12-20T05:17:03;5.30;99.90
7192;DHT22;3637;51.494;11.958;2023-12-20T05:20:07;5.30;99.90
7192;DHT22;3637;51.494;11.958;2023-12-20T05:23:09;5.30;99.90
7192;DHT22;3637;51.494;11.958;2023-12-20T05:26:12;5.40;99.90
7192;DHT22;3637;51.494;11.958;2023-12-20T05:29:15;5.60;99.90
7192;DHT22;3637;51.494;11.958;2023-12-20T05:32:17;6.00;99.90
7192;DHT22;3637;51.494;11.958;2023-12-20T05:35:19;5.60;99.90
7192;DHT22;3637;51.494;11.958;2023-12-20T05:38:25;5.40;99.90
7192;DHT22;3637;51.494;11.958;2023-12-20T05:41:27;5.30;99.90
7192;DHT22;3637;51.494;11.958;2023-12-20T05:44:31;5.30;99.90
7192;DHT22;3637;51.494;11.958;2023-12-20T05:47:37;5.30;99.90
7192;DHT22;3637;51.494;11.958;2023-12-20T05:50:39;5.40;99.90
7192;DHT22;3637;51.494;11.958;2023-12-20T05:53:41;5.40;99.90
7192;DHT22;3637;51.494;11.958;2023-12-20T05:56:45;5.20;99.90
7192;DHT22;3637;51.494;11.958;2023-12-20T05:59:49;5.10;99.90
7192;DHT22;3637;51.494;11.958;2023-12-20T06:02:51;5.10;99.90
7192;DHT22;3637;51.494;11.958;2023-12-20T06:05:54;5.70;99.90
7192;DHT22;3637;51.494;11.958;2023-12-20T06:08:59;5.00;99.90
7192;DHT22;3637;51.494;11.958;2023-12-20T06:12:17;5.20;99.90
7192;DHT22;3637;51.494;11.958;2023-12-20T06:15:22;4.90;99.90
7192;DHT22;3637;51.494;11.958;2023-12-20T06:18:24;5.60;99.90
7192;DHT22;3637;51.494;11.958;2023-12-20T06:21:26;4.90;99.90
7192;DHT22;3637;51.494;11.958;2023-12-20T06:24:30;4.90;99.90
7192;DHT22;3637;51.494;11.958;2023-12-20T06:27:52;4.80;99.90
7192;DHT22;3637;51.494;11.958;2023-12-20T06:30:57;4.80;99.90
7192;DHT22;3637;51.494;11.958;2023-12-20T06:34:19;5.10;99.90
7192;DHT22;3637;51.494;11.958;2023-12-20T06:37:21;5.20;99.90
7192;DHT22;3637;51.494;11.958;2023-12-20T06:40:25;5.30;99.90
7192;DHT22;3637;51.494;11.958;2023-12-20T06:43:27;5.20;99.90
7192;DHT22;3637;51.494;11.958;2023-12-20T06:46:33;5.70;99.90
7192;DHT22;3637;51.494;11.958;2023-12-20T06:49:35;5.40;99.90
7192;DHT22;3637;51.494;11.958;2023-12-20T06:52:37;5.00;99.90
7192;DHT22;3637;51.494;11.958;2023-12-20T06:55:40;5.60;99.90
7192;DHT22;3637;51.494;11.958;2023-12-20T06:58:43;5.40;99.90
7192;DHT22;3637;51.494;11.958;2023-12-20T07:01:49;5.00;99.90
7192;DHT22;3637;51.494;11.958;2023-12-20T07:04:51;5.20;99.90
7192;DHT22;3637;51.494;11.958;2023-12-20T07:07:53;5.20;99.90
7192;DHT22;3637;51.494;11.958;2023-12-20T07:10:55;5.40;99.90
7192;DHT22;3637;51.494;11.958;2023-12-20T07:13:58;5.70;99.90
7192;DHT22;3637;51.494;11.958;2023-12-20T07:17:04;5.60;99.90
7192;DHT22;3637;51.494;11.958;2023-12-20T07:20:26;6.00;99.90
7192;DHT22;3637;51.494;11.958;2023-12-20T07:23:31;5.40;99.90
7192;DHT22;3637;51.494;11.958;2023-12-20T07:26:35;5.50;99.90
7192;DHT22;3637;51.494;11.958;2023-12-20T07:29:38;6.20;99.90
7192;DHT22;3637;51.494;11.958;2023-12-20T07:32:42;5.70;99.90
7192;DHT22;3637;51.494;11.958;2023-12-20T07:35:52;5.80;99.90
7192;DHT22;3637;51.494;11.958;2023-12-20T07:38:55;5.60;99.90
7192;DHT22;3637;51.494;11.958;2023-12-20T07:42:00;5.60;99.90
7192;DHT22;3637;51.494;11.958;2023-12-20T07:45:04;5.80;99.90
7192;DHT22;3637;51.494;11.958;2023-12-20T07:48:10;5.80;99.90
7192;DHT22;3637;51.494;11.958;2023-12-20T07:51:13;5.80;99.90
7192;DHT22;3637;51.494;11.958;2023-12-20T07:54:18;6.10;99.90
7192;DHT22;3637;51.494;11.958;2023-12-20T07:57:22;6.00;99.90
7192;DHT22;3637;51.494;11.958;2023-12-20T08:00:24;6.00;99.90
7192;DHT22;3637;51.494;11.958;2023-12-20T08:03:29;6.00;99.90
7192;DHT22;3637;51.494;11.958;2023-12-20T08:06:34;5.90;99.90
7192;DHT22;3637;51.494;11.958;2023-12-20T08:09:37;7.30;99.90
7192;DHT22;3637;51.494;11.958;2023-12-20T08:12:39;5.80;99.90
7192;DHT22;3637;51.494;11.958;2023-12-20T08:15:41;5.80;99.90
7192;DHT22;3637;51.494;11.958;2023-12-20T08:18:47;5.70;99.90
7192;DHT22;3637;51.494;11.958;2023-12-20T08:21:54;5.80;99.90
7192;DHT22;3637;51.494;11.958;2023-12-20T08:24:58;5.80;99.90
7192;DHT22;3637;51.494;11.958;2023-12-20T08:28:01;6.30;99.90
7192;DHT22;3637;51.494;11.958;2023-12-20T08:31:05;6.60;99.90
7192;DHT22;3637;51.494;11.958;2023-12-20T08:34:09;5.70;99.90
7192;DHT22;3637;51.494;11.958;2023-12-20T08:37:13;5.40;99.90
7192;DHT22;3637;51.494;11.958;2023-12-20T08:40:15;6.20;99.90
7192;DHT22;3637;51.494;11.958;2023-12-20T08:43:18;7.00;99.90
7192;DHT22;3637;51.494;11.958;2023-12-20T08:46:24;6.50;99.90
7192;DHT22;3637;51.494;11.958;2023-12-20T08:49:42;6.20;99.90
7192;DHT22;3637;51.494;11.958;2023-12-20T08:52:45;6.20;99.90
7192;DHT22;3637;51.494;11.958;2023-12-20T08:55:50;6.30;99.90
7192;DHT22;3637;51.494;11.958;2023-12-20T08:58:55;6.50;99.90
7192;DHT22;3637;51.494;11.958;2023-12-20T09:01:57;6.50;99.90
7192;DHT22;3637;51.494;11.958;2023-12-20T09:05:11;6.50;99.90
7192;DHT22;3637;51.494;11.958;2023-12-20T09:08:14;7.20;99.90
7192;DHT22;3637;51.494;11.958;2023-12-20T09:11:17;6.40;99.90
7192;DHT22;3637;51.494;11.958;2023-12-20T09:14:20;6.90;99.90
7192;DHT22;3637;51.494;11.958;2023-12-20T09:17:23;7.00;99.90
7192;DHT22;3637;51.494;11.958;2023-12-20T09:20:41;7.20;99.90
7192;DHT22;3637;51.494;11.958;2023-12-20T09:23:43;7.30;99.90
7192;DHT22;3637;51.494;11.958;2023-12-20T09:26:45;8.50;99.90
7192;DHT22;3637;51.494;11.958;2023-12-20T09:29:52;7.60;99.90
7192;DHT22;3637;51.494;11.958;2023-12-20T09:32:54;7.70;99.90
7192;DHT22;3637;51.494;11.958;2023-12-20T09:36:00;7.80;99.90
7192;DHT22;3637;51.494;11.958;2023-12-20T09:39:02;7.80;99.90
7192;DHT22;3637;51.494;11.958;2023-12-20T09:42:07;7.70;99.90
7192;DHT22;3637;51.494;11.958;2023-12-20T09:45:12;8.30;99.90
7192;DHT22;3637;51.494;11.958;2023-12-20T09:48:19;7.30;99.90
7192;DHT22;3637;51.494;11.958;2023-12-20T09:51:23;7.50;99.90
7192;DHT22;3637;51.494;11.958;2023-12-20T09:54:25;6.50;99.90
7192;DHT22;3637;51.494;11.958;2023-12-20T09:57:34;7.20;99.90
7192;DHT22;3637;51.494;11.958;2023-12-20T10:00:36;7.80;99.90
7192;DHT22;3637;51.494;11.958;2023-12-20T10:03:58;7.90;99.90
7192;DHT22;3637;51.494;11.958;2023-12-20T10:07:12;6.70;99.90
7192;DHT22;3637;51.494;11.958;2023-12-20T10:10:16;7.80;99.90
7192;DHT22;3637;51.494;11.958;2023-12-20T10:13:19;7.40;99.90
7192;DHT22;3637;51.494;11.958;2023-12-20T10:16:25;7.60;99.90
7192;DHT22;3637;51.494;11.958;2023-12-20T10:19:43;7.50;99.90
7192;DHT22;3637;51.494;11.958;2023-12-20T10:22:49;8.50;99.90
7192;DHT22;3637;51.494;11.958;2023-12-20T10:26:00;8.40;99.90
7192;DHT22;3637;51.494;11.958;2023-12-20T10:29:08;7.30;99.90
7192;DHT22;3637;51.494;11.958;2023-12-20T10:32:22;7.50;99.90
7192;DHT22;3637;51.494;11.958;2023-12-20T10:35:28;7.70;99.90
7192;DHT22;3637;51.494;11.958;2023-12-20T10:38:31;8.10;99.90
7192;DHT22;3637;51.494;11.958;2023-12-20T10:41:38;7.90;99.90
7192;DHT22;3637;51.494;11.958;2023-12-20T10:44:44;8.60;99.90
7192;DHT22;3637;51.494;11.958;2023-12-20T10:48:07;8.40;99.90
7192;DHT22;3637;51.494;11.958;2023-12-20T10:51:09;7.90;99.90
7192;DHT22;3637;51.494;11.958;2023-12-20T10:54:33;8.40;99.90
7192;DHT22;3637;51.494;11.958;2023-12-20T10:57:46;8.40;99.90
7192;DHT22;3637;51.494;11.958;2023-12-20T11:01:08;8.70;99.90
7192;DHT22;3637;51.494;11.958;2023-12-20T11:04:36;8.10;99.90
7192;DHT22;3637;51.494;11.958;2023-12-20T11:07:45;8.30;99.90
7192;DHT22;3637;51.494;11.958;2023-12-20T11:11:29;8.30;99.90
7192;DHT22;3637;51.494;11.958;2023-12-20T11:14:56;7.70;99.90
7192;DHT22;3637;51.494;11.958;2023-12-20T11:18:05;8.40;99.90
7192;DHT22;3637;51.494;11.958;2023-12-20T11:21:10;8.20;99.90
7192;DHT22;3637;51.494;11.958;2023-12-20T11:24:34;8.00;99.90
7192;DHT22;3637;51.494;11.958;2023-12-20T11:28:20;8.60;99.90
7192;DHT22;3637;51.494;11.958;2023-12-20T11:31:22;7.70;99.90
7192;DHT22;3637;51.494;11.958;2023-12-20T11:34:32;8.10;99.90
7192;DHT22;3637;51.494;11.958;2023-12-20T11:37:38;8.80;99.90
7192;DHT22;3637;51.494;11.958;2023-12-20T11:41:08;8.10;99.90
7192;DHT22;3637;51.494;11.958;2023-12-20T11:44:22;8.20;99.90
7192;DHT22;3637;51.494;11.958;2023-12-20T11:47:25;8.60;99.90
7192;DHT22;3637;51.494;11.958;2023-12-20T11:50:35;8.20;99.90
7192;DHT22;3637;51.494;11.958;2023-12-20T11:53:40;8.10;99.90
7192;DHT22;3637;51.494;11.958;2023-12-20T11:56:48;8.00;99.90
7192;DHT22;3637;51.494;11.958;2023-12-20T12:00:05;7.80;99.90
7192;DHT22;3637;51.494;11.958;2023-12-20T12:03:10;7.80;99.90
7192;DHT22;3637;51.494;11.958;2023-12-20T12:06:40;7.80;99.90
7192;DHT22;3637;51.494;11.958;2023-12-20T12:09:49;7.80;99.90
7192;DHT22;3637;51.494;11.958;2023-12-20T12:12:51;7.90;99.90
7192;DHT22;3637;51.494;11.958;2023-12-20T12:15:54;8.00;99.90
7192;DHT22;3637;51.494;11.958;2023-12-20T12:18:57;8.60;99.90
7192;DHT22;3637;51.494;11.958;2023-12-20T12:22:19;8.20;99.90
7192;DHT22;3637;51.494;11.958;2023-12-20T12:25:26;7.70;99.90
7192;DHT22;3637;51.494;11.958;2023-12-20T12:28:31;7.50;99.90
7192;DHT22;3637;51.494;11.958;2023-12-20T12:31:34;8.50;99.90
7192;DHT22;3637;51.494;11.958;2023-12-20T12:34:41;8.00;99.90
7192;DHT22;3637;51.494;11.958;2023-12-20T12:41:19;8.00;99.90
7192;DHT22;3637;51.494;11.958;2023-12-20T12:44:41;8.10;99.90
7192;DHT22;3637;51.494;11.958;2023-12-20T12:47:47;8.10;99.90
7192;DHT22;3637;51.494;11.958;2023-12-20T12:50:54;8.50;99.90
7192;DHT22;3637;51.494;11.958;2023-12-20T12:54:22;8.60;99.90
7192;DHT22;3637;51.494;11.958;2023-12-20T12:57:25;8.20;99.90
7192;DHT22;3637;51.494;11.958;2023-12-20T13:00:27;8.40;99.90
7192;DHT22;3637;51.494;11.958;2023-12-20T13:03:33;8.20;99.90
7192;DHT22;3637;51.494;11.958;2023-12-20T13:06:35;8.00;99.90
7192;DHT22;3637;51.494;11.958;2023-12-20T13:09:55;8.20;99.90
7192;DHT22;3637;51.494;11.958;2023-12-20T13:12:58;8.30;99.90
7192;DHT22;3637;51.494;11.958;2023-12-20T13:16:00;8.20;99.90
7192;DHT22;3637;51.494;11.958;2023-12-20T13:19:03;8.20;99.90
7192;DHT22;3637;51.494;11.958;2023-12-20T13:22:08;8.30;99.90
7192;DHT22;3637;51.494;11.958;2023-12-20T13:25:12;8.10;99.90
7192;DHT22;3637;51.494;11.958;2023-12-20T13:28:16;8.00;99.90
7192;DHT22;3637;51.494;11.958;2023-12-20T13:31:19;8.10;99.90
7192;DHT22;3637;51.494;11.958;2023-12-20T13:34:21;7.80;99.90
7192;DHT22;3637;51.494;11.958;2023-12-20T13:37:24;8.10;99.90
7192;DHT22;3637;51.494;11.958;2023-12-20T13:40:28;7.90;99.90
7192;DHT22;3637;51.494;11.958;2023-12-20T13:43:32;7.80;99.90
7192;DHT22;3637;51.494;11.958;2023-12-20T13:46:38;7.80;99.90
7192;DHT22;3637;51.494;11.958;2023-12-20T13:50:10;7.90;99.90
7192;DHT22;3637;51.494;11.958;2023-12-20T13:53:14;7.80;99.90
7192;DHT22;3637;51.494;11.958;2023-12-20T13:56:24;7.70;99.90
7192;DHT22;3637;51.494;11.958;2023-12-20T13:59:26;8.50;99.90
7192;DHT22;3637;51.494;11.958;2023-12-20T14:02:28;7.70;99.90
7192;DHT22;3637;51.494;11.958;2023-12-20T14:05:36;8.30;99.90
7192;DHT22;3637;51.494;11.958;2023-12-20T14:08:40;8.10;99.90
7192;DHT22;3637;51.494;11.958;2023-12-20T14:11:45;7.80;99.90
7192;DHT22;3637;51.494;11.958;2023-12-20T14:14:48;7.60;99.90
7192;DHT22;3637;51.494;11.958;2023-12-20T14:17:51;9.00;99.90
7192;DHT22;3637;51.494;11.958;2023-12-20T14:20:54;7.40;99.90
7192;DHT22;3637;51.494;11.958;2023-12-20T14:24:06;8.10;99.90
7192;DHT22;3637;51.494;11.958;2023-12-20T14:27:15;7.50;99.90
7192;DHT22;3637;51.494;11.958;2023-12-20T14:30:19;7.50;99.90
7192;DHT22;3637;51.494;11.958;2023-12-20T14:33:21;7.80;99.90
7192;DHT22;3637;51.494;11.958;2023-12-20T14:36:23;7.30;99.90
7192;DHT22;3637;51.494;11.958;2023-12-20T14:39:27;7.20;99.90
7192;DHT22;3637;51.494;11.958;2023-12-20T14:42:46;6.90;99.90
7192;DHT22;3637;51.494;11.958;2023-12-20T14:45:50;7.00;99.90
7192;DHT22;3637;51.494;11.958;2023-12-20T14:48:55;7.10;99.90
7192;DHT22;3637;51.494;11.958;2023-12-20T14:52:00;7.10;99.90
7192;DHT22;3637;51.494;11.958;2023-12-20T14:55:09;7.10;99.90
7192;DHT22;3637;51.494;11.958;2023-12-20T14:58:15;6.10;99.90
7192;DHT22;3637;51.494;11.958;2023-12-20T15:01:20;7.70;99.90
7192;DHT22;3637;51.494;11.958;2023-12-20T15:04:24;6.80;99.90
7192;DHT22;3637;51.494;11.958;2023-12-20T15:07:30;6.90;99.90
7192;DHT22;3637;51.494;11.958;2023-12-20T15:10:35;7.00;99.90
7192;DHT22;3637;51.494;11.958;2023-12-20T15:13:40;7.30;99.90
7192;DHT22;3637;51.494;11.958;2023-12-20T15:16:44;7.30;99.90
7192;DHT22;3637;51.494;11.958;2023-12-20T15:19:48;6.70;99.90
7192;DHT22;3637;51.494;11.958;2023-12-20T15:22:50;6.80;99.90
7192;DHT22;3637;51.494;11.958;2023-12-20T15:25:55;7.10;99.90
7192;DHT22;3637;51.494;11.958;2023-12-20T15:28:59;6.70;99.90
7192;DHT22;3637;51.494;11.958;2023-12-20T15:32:02;7.00;99.90
7192;DHT22;3637;51.494;11.958;2023-12-20T15:35:07;6.70;99.90
7192;DHT22;3637;51.494;11.958;2023-12-20T15:38:14;6.70;99.90
7192;DHT22;3637;51.494;11.958;2023-12-20T15:41:21;7.10;99.90
7192;DHT22;3637;51.494;11.958;2023-12-20T15:44:32;7.10;99.90
7192;DHT22;3637;51.494;11.958;2023-12-20T15:47:40;6.60;99.90
7192;DHT22;3637;51.494;11.958;2023-12-20T15:50:46;7.00;99.90
7192;DHT22;3637;51.494;11.958;2023-12-20T15:53:48;6.50;99.90
7192;DHT22;3637;51.494;11.958;2023-12-20T15:57:07;6.90;99.90
7192;DHT22;3637;51.494;11.958;2023-12-20T16:00:13;6.30;99.90
7192;DHT22;3637;51.494;11.958;2023-12-20T16:03:15;6.30;99.90
7192;DHT22;3637;51.494;11.958;2023-12-20T16:06:18;6.30;99.90
7192;DHT22;3637;51.494;11.958;2023-12-20T16:09:30;6.60;99.90
7192;DHT22;3637;51.494;11.958;2023-12-20T16:12:48;5.80;99.90
7192;DHT22;3637;51.494;11.958;2023-12-20T16:15:54;6.00;99.90
7192;DHT22;3637;51.494;11.958;2023-12-20T16:18:57;5.90;99.90
7192;DHT22;3637;51.494;11.958;2023-12-20T16:22:01;6.40;99.90
7192;DHT22;3637;51.494;11.958;2023-12-20T16:25:04;6.10;99.90
7192;DHT22;3637;51.494;11.958;2023-12-20T16:28:13;5.90;99.90
7192;DHT22;3637;51.494;11.958;2023-12-20T16:31:18;6.20;99.90
7192;DHT22;3637;51.494;11.958;2023-12-20T16:34:20;6.30;99.90
7192;DHT22;3637;51.494;11.958;2023-12-20T16:37:23;6.50;99.90
7192;DHT22;3637;51.494;11.958;2023-12-20T16:40:25;7.40;99.90
7192;DHT22;3637;51.494;11.958;2023-12-20T16:43:27;7.40;99.90
7192;DHT22;3637;51.494;11.958;2023-12-20T16:46:31;6.70;99.90
7192;DHT22;3637;51.494;11.958;2023-12-20T16:49:36;6.00;99.90
7192;DHT22;3637;51.494;11.958;2023-12-20T16:52:39;5.90;99.90
7192;DHT22;3637;51.494;11.958;2023-12-20T16:55:41;6.30;99.90
7192;DHT22;3637;51.494;11.958;2023-12-20T16:58:44;5.70;99.90
7192;DHT22;3637;51.494;11.958;2023-12-20T17:01:48;6.10;99.90
7192;DHT22;3637;51.494;11.958;2023-12-20T17:05:10;5.90;99.90
7192;DHT22;3637;51.494;11.958;2023-12-20T17:08:12;5.80;99.90
7192;DHT22;3637;51.494;11.958;2023-12-20T17:11:16;7.10;99.90
7192;DHT22;3637;51.494;11.958;2023-12-20T17:14:20;5.80;99.90
7192;DHT22;3637;51.494;11.958;2023-12-20T17:17:24;5.90;99.90
7192;DHT22;3637;51.494;11.958;2023-12-20T17:20:26;5.80;99.90
7192;DHT22;3637;51.494;11.958;2023-12-20T17:23:28;5.90;99.90
7192;DHT22;3637;51.494;11.958;2023-12-20T17:26:32;5.80;99.90
7192;DHT22;3637;51.494;11.958;2023-12-20T17:29:35;5.80;99.90
7192;DHT22;3637;51.494;11.958;2023-12-20T17:32:38;5.80;99.90
7192;DHT22;3637;51.494;11.958;2023-12-20T17:35:42;6.50;99.90
7192;DHT22;3637;51.494;11.958;2023-12-20T17:38:44;6.10;99.90
7192;DHT22;3637;51.494;11.958;2023-12-20T17:41:51;5.20;99.90
7192;DHT22;3637;51.494;11.958;2023-12-20T17:44:54;6.00;99.90
7192;DHT22;3637;51.494;11.958;2023-12-20T17:48:07;5.70;99.90
7192;DHT22;3637;51.494;11.958;2023-12-20T17:51:09;5.40;99.90
7192;DHT22;3637;51.494;11.958;2023-12-20T17:54:12;6.40;99.90
7192;DHT22;3637;51.494;11.958;2023-12-20T17:57:15;6.50;99.90
7192;DHT22;3637;51.494;11.958;2023-12-20T18:00:21;5.80;99.90
7192;DHT22;3637;51.494;11.958;2023-12-20T18:03:27;5.80;99.90
7192;DHT22;3637;51.494;11.958;2023-12-20T18:06:30;6.10;99.90
7192;DHT22;3637;51.494;11.958;2023-12-20T18:09:38;5.90;99.90
7192;DHT22;3637;51.494;11.958;2023-12-20T18:12:43;7.30;99.90
7192;DHT22;3637;51.494;11.958;2023-12-20T18:15:47;6.60;99.90
7192;DHT22;3637;51.494;11.958;2023-12-20T18:18:53;6.00;99.90
7192;DHT22;3637;51.494;11.958;2023-12-20T18:21:55;5.80;99.90
7192;DHT22;3637;51.494;11.958;2023-12-20T18:24:58;6.40;99.90
7192;DHT22;3637;51.494;11.958;2023-12-20T18:28:01;5.90;99.90
7192;DHT22;3637;51.494;11.958;2023-12-20T18:31:05;5.90;99.90
7192;DHT22;3637;51.494;11.958;2023-12-20T18:34:15;6.60;99.90
7192;DHT22;3637;51.494;11.958;2023-12-20T18:37:20;6.30;99.90
7192;DHT22;3637;51.494;11.958;2023-12-20T18:40:24;6.00;99.90
7192;DHT22;3637;51.494;11.958;2023-12-20T18:43:28;6.10;99.90
7192;DHT22;3637;51.494;11.958;2023-12-20T18:46:31;6.10;99.90
7192;DHT22;3637;51.494;11.958;2023-12-20T18:49:37;6.50;99.90
7192;DHT22;3637;51.494;11.958;2023-12-20T18:52:39;6.50;99.90
7192;DHT22;3637;51.494;11.958;2023-12-20T18:55:42;6.20;99.90
7192;DHT22;3637;51.494;11.958;2023-12-20T18:58:45;6.10;99.90
7192;DHT22;3637;51.494;11.958;2023-12-20T19:01:50;6.40;99.90
7192;DHT22;3637;51.494;11.958;2023-12-20T19:05:00;6.10;99.90
7192;DHT22;3637;51.494;11.958;2023-12-20T19:08:05;6.50;99.90
7192;DHT22;3637;51.494;11.958;2023-12-20T19:11:18;6.20;99.90
7192;DHT22;3637;51.494;11.958;2023-12-20T19:14:22;6.60;99.90
7192;DHT22;3637;51.494;11.958;2023-12-20T19:17:27;6.20;99.90
7192;DHT22;3637;51.494;11.958;2023-12-20T19:20:48;6.30;99.90
7192;DHT22;3637;51.494;11.958;2023-12-20T19:24:26;6.40;99.90
7192;DHT22;3637;51.494;11.958;2023-12-20T19:28:08;6.20;99.90
7192;DHT22;3637;51.494;11.958;2023-12-20T19:31:50;6.20;99.90
7192;DHT22;3637;51.494;11.958;2023-12-20T19:34:57;6.10;99.90
7192;DHT22;3637;51.494;11.958;2023-12-20T19:38:36;7.20;99.90
7192;DHT22;3637;51.494;11.958;2023-12-20T19:42:00;6.00;99.90
7192;DHT22;3637;51.494;11.958;2023-12-20T19:45:37;6.50;99.90
7192;DHT22;3637;51.494;11.958;2023-12-20T19:56:21;6.40;99.90
7192;DHT22;3637;51.494;11.958;2023-12-20T19:59:32;6.40;99.90
7192;DHT22;3637;51.494;11.958;2023-12-20T20:02:36;6.40;99.90
7192;DHT22;3637;51.494;11.958;2023-12-20T20:05:39;7.60;99.90
7192;DHT22;3637;51.494;11.958;2023-12-20T20:08:46;6.10;99.90
7192;DHT22;3637;51.494;11.958;2023-12-20T20:12:11;6.10;99.90
7192;DHT22;3637;51.494;11.958;2023-12-20T20:15:14;6.10;99.90
7192;DHT22;3637;51.494;11.958;2023-12-20T20:18:17;6.20;99.90
7192;DHT22;3637;51.494;11.958;2023-12-20T20:21:21;6.10;99.90
7192;DHT22;3637;51.494;11.958;2023-12-20T20:24:28;7.20;99.90
7192;DHT22;3637;51.494;11.958;2023-12-20T20:27:50;6.30;99.90
7192;DHT22;3637;51.494;11.958;2023-12-20T20:30:58;6.20;99.90
7192;DHT22;3637;51.494;11.958;2023-12-20T20:34:03;6.20;99.90